sensor_id;sensor_type;location;lat;lon;timestamp;temperature;humidity
2855;DHT22;1435;49.472;10.940;2023-06-14T00:04:35;17.80;76.00
2855;DHT22;1435;49.472;10.940;2023-06-14T00:09:37;17.80;75.80
2855;DHT22;1435;49.472;10.940;2023-06-14T00:14:40;17.60;77.30
2855;DHT22;1435;49.472;10.940;2023-06-14T00:19:41;17.60;77.20
2855;DHT22;1435;49.472;10.940;2023-06-14T00:24:43;17.50;77.80
2855;DHT22;1435;49.472;10.940;2023-06-14T00:29:46;17.50;77.20
2855;DHT22;1435;49.472;10.940;2023-06-14T00:34:48;17.40;76.70
2855;DHT22;1435;49.472;10.940;2023-06-14T00:39:49;17.40;77.60
2855;DHT22;1435;49.472;10.940;2023-06-14T00:44:53;17.40;78.20
2855;DHT22;1435;49.472;10.940;2023-06-14T00:49:55;17.30;77.30
2855;DHT22;1435;49.472;10.940;2023-06-14T00:54:57;17.20;77.60
2855;DHT22;1435;49.472;10.940;2023-06-14T01:00:00;17.20;77.80
2855;DHT22;1435;49.472;10.940;2023-06-14T01:05:03;17.10;79.00
2855;DHT22;1435;49.472;10.940;2023-06-14T01:10:16;17.00;80.00
2855;DHT22;1435;49.472;10.940;2023-06-14T01:15:25;16.90;80.00
2855;DHT22;1435;49.472;10.940;2023-06-14T01:20:28;16.80;79.50
2855;DHT22;1435;49.472;10.940;2023-06-14T01:25:32;16.70;79.50
2855;DHT22;1435;49.472;10.940;2023-06-14T01:30:37;16.50;80.40
2855;DHT22;1435;49.472;10.940;2023-06-14T01:35:39;16.40;80.60
2855;DHT22;1435;49.472;10.940;2023-06-14T01:40:43;16.30;80.90
2855;DHT22;1435;49.472;10.940;2023-06-14T01:45:47;16.20;82.20
2855;DHT22;1435;49.472;10.940;2023-06-14T01:50:49;16.10;82.00
2855;DHT22;1435;49.472;10.940;2023-06-14T01:55:52;16.00;82.70
2855;DHT22;1435;49.472;10.940;2023-06-14T02:00:54;15.90;82.90
2855;DHT22;1435;49.472;10.940;2023-06-14T02:05:57;15.90;83.80
2855;DHT22;1435;49.472;10.940;2023-06-14T02:10:59;15.80;84.40
2855;DHT22;1435;49.472;10.940;2023-06-14T02:16:01;15.70;84.40
2855;DHT22;1435;49.472;10.940;2023-06-14T02:21:03;15.60;85.60
2855;DHT22;1435;49.472;10.940;2023-06-14T02:26:06;15.50;85.50
2855;DHT22;1435;49.472;10.940;2023-06-14T02:31:08;15.50;86.80
2855;DHT22;1435;49.472;10.940;2023-06-14T02:36:09;15.40;86.50
2855;DHT22;1435;49.472;10.940;2023-06-14T02:41:12;15.30;87.80
2855;DHT22;1435;49.472;10.940;2023-06-14T02:46:14;15.20;87.70
2855;DHT22;1435;49.472;10.940;2023-06-14T02:51:16;15.10;88.60
2855;DHT22;1435;49.472;10.940;2023-06-14T02:56:19;15.00;89.30
2855;DHT22;1435;49.472;10.940;2023-06-14T03:01:23;15.00;90.00
2855;DHT22;1435;49.472;10.940;2023-06-14T03:06:24;14.90;90.20
2855;DHT22;1435;49.472;10.940;2023-06-14T03:11:28;14.80;90.60
2855;DHT22;1435;49.472;10.940;2023-06-14T03:16:29;14.80;90.50
2855;DHT22;1435;49.472;10.940;2023-06-14T03:21:32;14.70;90.90
2855;DHT22;1435;49.472;10.940;2023-06-14T03:26:36;14.70;91.40
2855;DHT22;1435;49.472;10.940;2023-06-14T03:31:56;14.60;91.50
2855;DHT22;1435;49.472;10.940;2023-06-14T03:36:57;14.60;91.70
2855;DHT22;1435;49.472;10.940;2023-06-14T03:42:00;14.60;91.90
2855;DHT22;1435;49.472;10.940;2023-06-14T03:47:02;14.60;92.00
2855;DHT22;1435;49.472;10.940;2023-06-14T03:52:04;14.50;92.30
2855;DHT22;1435;49.472;10.940;2023-06-14T03:57:07;14.50;92.50
2855;DHT22;1435;49.472;10.940;2023-06-14T04:02:09;14.50;92.90
2855;DHT22;1435;49.472;10.940;2023-06-14T04:07:11;14.50;93.20
2855;DHT22;1435;49.472;10.940;2023-06-14T04:12:14;14.50;93.60
2855;DHT22;1435;49.472;10.940;2023-06-14T04:17:16;14.50;94.10
2855;DHT22;1435;49.472;10.940;2023-06-14T04:22:17;14.50;94.70
2855;DHT22;1435;49.472;10.940;2023-06-14T04:27:20;14.60;94.70
2855;DHT22;1435;49.472;10.940;2023-06-14T04:32:26;14.60;95.30
2855;DHT22;1435;49.472;10.940;2023-06-14T04:37:28;14.70;95.70
2855;DHT22;1435;49.472;10.940;2023-06-14T04:42:32;14.80;95.90
2855;DHT22;1435;49.472;10.940;2023-06-14T04:47:33;14.90;96.50
2855;DHT22;1435;49.472;10.940;2023-06-14T04:52:36;15.00;96.40
2855;DHT22;1435;49.472;10.940;2023-06-14T04:57:39;15.00;96.90
2855;DHT22;1435;49.472;10.940;2023-06-14T05:02:41;15.10;96.80
2855;DHT22;1435;49.472;10.940;2023-06-14T05:07:42;15.20;97.20
2855;DHT22;1435;49.472;10.940;2023-06-14T05:12:45;15.30;97.10
2855;DHT22;1435;49.472;10.940;2023-06-14T05:17:48;15.30;96.60
2855;DHT22;1435;49.472;10.940;2023-06-14T05:22:55;15.30;96.50
2855;DHT22;1435;49.472;10.940;2023-06-14T05:27:58;15.30;96.60
2855;DHT22;1435;49.472;10.940;2023-06-14T05:33:00;15.40;96.40
2855;DHT22;1435;49.472;10.940;2023-06-14T05:38:02;15.50;96.20
2855;DHT22;1435;49.472;10.940;2023-06-14T05:43:05;15.70;96.20
2855;DHT22;1435;49.472;10.940;2023-06-14T05:48:07;15.80;96.40
2855;DHT22;1435;49.472;10.940;2023-06-14T05:53:08;15.90;97.00
2855;DHT22;1435;49.472;10.940;2023-06-14T05:58:11;16.00;96.80
2855;DHT22;1435;49.472;10.940;2023-06-14T06:03:14;16.10;96.80
2855;DHT22;1435;49.472;10.940;2023-06-14T06:08:15;16.20;96.90
2855;DHT22;1435;49.472;10.940;2023-06-14T06:13:19;16.30;96.80
2855;DHT22;1435;49.472;10.940;2023-06-14T06:18:20;16.40;96.80
2855;DHT22;1435;49.472;10.940;2023-06-14T06:23:22;16.50;96.80
2855;DHT22;1435;49.472;10.940;2023-06-14T06:28:25;16.60;97.00
2855;DHT22;1435;49.472;10.940;2023-06-14T06:33:27;16.60;96.50
2855;DHT22;1435;49.472;10.940;2023-06-14T06:38:28;16.70;97.10
2855;DHT22;1435;49.472;10.940;2023-06-14T06:43:31;16.80;97.40
2855;DHT22;1435;49.472;10.940;2023-06-14T06:48:33;16.80;97.10
2855;DHT22;1435;49.472;10.940;2023-06-14T06:53:35;16.90;97.10
2855;DHT22;1435;49.472;10.940;2023-06-14T06:58:38;17.00;97.20
2855;DHT22;1435;49.472;10.940;2023-06-14T07:03:40;17.10;97.10
2855;DHT22;1435;49.472;10.940;2023-06-14T07:08:42;17.10;97.00
2855;DHT22;1435;49.472;10.940;2023-06-14T07:13:45;17.20;96.80
2855;DHT22;1435;49.472;10.940;2023-06-14T07:18:47;17.20;96.60
2855;DHT22;1435;49.472;10.940;2023-06-14T07:23:48;17.30;96.80
2855;DHT22;1435;49.472;10.940;2023-06-14T07:28:51;17.40;96.50
2855;DHT22;1435;49.472;10.940;2023-06-14T07:33:53;17.50;96.30
2855;DHT22;1435;49.472;10.940;2023-06-14T07:38:55;17.50;96.10
2855;DHT22;1435;49.472;10.940;2023-06-14T07:43:58;17.60;95.80
2855;DHT22;1435;49.472;10.940;2023-06-14T07:49:00;17.70;94.90
2855;DHT22;1435;49.472;10.940;2023-06-14T07:54:01;17.90;94.60
2855;DHT22;1435;49.472;10.940;2023-06-14T07:59:05;18.00;94.90
2855;DHT22;1435;49.472;10.940;2023-06-14T08:04:07;18.10;94.70
2855;DHT22;1435;49.472;10.940;2023-06-14T08:09:10;18.30;93.50
2855;DHT22;1435;49.472;10.940;2023-06-14T08:14:13;18.50;93.00
2855;DHT22;1435;49.472;10.940;2023-06-14T08:19:15;18.60;92.70
2855;DHT22;1435;49.472;10.940;2023-06-14T08:24:21;18.70;91.80
2855;DHT22;1435;49.472;10.940;2023-06-14T08:29:26;18.90;92.30
2855;DHT22;1435;49.472;10.940;2023-06-14T08:34:29;19.00;90.50
2855;DHT22;1435;49.472;10.940;2023-06-14T08:39:31;19.20;90.30
2855;DHT22;1435;49.472;10.940;2023-06-14T08:44:34;19.30;91.30
2855;DHT22;1435;49.472;10.940;2023-06-14T08:49:37;19.40;91.00
2855;DHT22;1435;49.472;10.940;2023-06-14T08:54:41;19.50;90.50
2855;DHT22;1435;49.472;10.940;2023-06-14T08:59:47;19.70;89.40
2855;DHT22;1435;49.472;10.940;2023-06-14T09:04:53;19.70;90.30
2855;DHT22;1435;49.472;10.940;2023-06-14T09:10:07;19.90;88.30
2855;DHT22;1435;49.472;10.940;2023-06-14T09:15:10;20.00;87.70
2855;DHT22;1435;49.472;10.940;2023-06-14T09:20:12;20.10;88.30
2855;DHT22;1435;49.472;10.940;2023-06-14T09:25:18;20.20;87.30
2855;DHT22;1435;49.472;10.940;2023-06-14T09:30:21;20.30;85.00
2855;DHT22;1435;49.472;10.940;2023-06-14T09:35:23;20.40;84.80
2855;DHT22;1435;49.472;10.940;2023-06-14T09:40:25;20.40;84.80
2855;DHT22;1435;49.472;10.940;2023-06-14T09:45:28;20.50;85.10
2855;DHT22;1435;49.472;10.940;2023-06-14T09:50:32;20.50;83.00
2855;DHT22;1435;49.472;10.940;2023-06-14T09:55:35;20.50;86.40
2855;DHT22;1435;49.472;10.940;2023-06-14T10:00:39;20.60;84.50
2855;DHT22;1435;49.472;10.940;2023-06-14T10:05:43;20.70;84.20
2855;DHT22;1435;49.472;10.940;2023-06-14T10:10:46;20.70;84.40
2855;DHT22;1435;49.472;10.940;2023-06-14T10:15:54;20.70;83.50
2855;DHT22;1435;49.472;10.940;2023-06-14T10:21:04;20.70;80.00
2855;DHT22;1435;49.472;10.940;2023-06-14T10:26:18;20.80;83.00
2855;DHT22;1435;49.472;10.940;2023-06-14T10:37:20;20.90;79.70
2855;DHT22;1435;49.472;10.940;2023-06-14T10:42:21;20.90;81.10
2855;DHT22;1435;49.472;10.940;2023-06-14T10:47:25;21.00;79.80
2855;DHT22;1435;49.472;10.940;2023-06-14T10:52:29;21.10;82.10
2855;DHT22;1435;49.472;10.940;2023-06-14T10:57:33;21.20;81.40
2855;DHT22;1435;49.472;10.940;2023-06-14T11:02:52;21.40;79.70
2855;DHT22;1435;49.472;10.940;2023-06-14T11:08:17;21.50;75.00
2855;DHT22;1435;49.472;10.940;2023-06-14T11:13:25;21.60;73.40
2855;DHT22;1435;49.472;10.940;2023-06-14T11:18:28;21.70;71.70
2855;DHT22;1435;49.472;10.940;2023-06-14T11:23:31;21.70;72.20
2855;DHT22;1435;49.472;10.940;2023-06-14T11:28:40;21.80;72.80
2855;DHT22;1435;49.472;10.940;2023-06-14T11:33:41;21.80;72.10
2855;DHT22;1435;49.472;10.940;2023-06-14T11:38:44;21.90;72.60
2855;DHT22;1435;49.472;10.940;2023-06-14T11:43:46;21.90;72.50
2855;DHT22;1435;49.472;10.940;2023-06-14T11:48:48;22.00;73.80
2855;DHT22;1435;49.472;10.940;2023-06-14T11:53:51;22.00;71.50
2855;DHT22;1435;49.472;10.940;2023-06-14T11:58:53;22.10;70.80
2855;DHT22;1435;49.472;10.940;2023-06-14T12:03:56;22.10;70.70
2855;DHT22;1435;49.472;10.940;2023-06-14T12:09:00;22.10;69.30
2855;DHT22;1435;49.472;10.940;2023-06-14T12:14:05;22.20;68.50
2855;DHT22;1435;49.472;10.940;2023-06-14T12:19:12;22.20;68.10
2855;DHT22;1435;49.472;10.940;2023-06-14T12:24:15;22.20;67.50
2855;DHT22;1435;49.472;10.940;2023-06-14T12:29:19;22.20;72.40
2855;DHT22;1435;49.472;10.940;2023-06-14T12:34:21;22.20;71.70
2855;DHT22;1435;49.472;10.940;2023-06-14T12:39:24;22.30;70.10
2855;DHT22;1435;49.472;10.940;2023-06-14T12:44:26;22.30;70.50
2855;DHT22;1435;49.472;10.940;2023-06-14T12:49:27;22.40;70.70
2855;DHT22;1435;49.472;10.940;2023-06-14T12:54:31;22.30;67.40
2855;DHT22;1435;49.472;10.940;2023-06-14T12:59:32;22.40;67.70
2855;DHT22;1435;49.472;10.940;2023-06-14T13:04:34;22.50;70.40
2855;DHT22;1435;49.472;10.940;2023-06-14T13:09:37;22.60;67.60
2855;DHT22;1435;49.472;10.940;2023-06-14T13:14:39;22.70;67.60
2855;DHT22;1435;49.472;10.940;2023-06-14T13:19:41;22.80;67.60
2855;DHT22;1435;49.472;10.940;2023-06-14T13:24:45;22.80;65.60
2855;DHT22;1435;49.472;10.940;2023-06-14T13:29:46;22.80;65.40
2855;DHT22;1435;49.472;10.940;2023-06-14T13:34:48;22.80;66.40
2855;DHT22;1435;49.472;10.940;2023-06-14T13:39:51;22.90;65.80
2855;DHT22;1435;49.472;10.940;2023-06-14T13:44:53;22.90;64.70
2855;DHT22;1435;49.472;10.940;2023-06-14T13:49:55;22.90;66.70
2855;DHT22;1435;49.472;10.940;2023-06-14T13:54:58;23.00;64.20
2855;DHT22;1435;49.472;10.940;2023-06-14T14:00:00;22.90;64.00
2855;DHT22;1435;49.472;10.940;2023-06-14T14:05:02;23.00;63.30
2855;DHT22;1435;49.472;10.940;2023-06-14T14:10:06;23.00;60.80
2855;DHT22;1435;49.472;10.940;2023-06-14T14:15:09;23.10;63.30
2855;DHT22;1435;49.472;10.940;2023-06-14T14:20:13;23.10;65.00
2855;DHT22;1435;49.472;10.940;2023-06-14T14:25:17;23.10;63.40
2855;DHT22;1435;49.472;10.940;2023-06-14T14:35:19;23.10;63.60
2855;DHT22;1435;49.472;10.940;2023-06-14T14:40:22;23.20;62.30
2855;DHT22;1435;49.472;10.940;2023-06-14T14:45:24;23.20;63.90
2855;DHT22;1435;49.472;10.940;2023-06-14T14:50:26;23.20;60.70
2855;DHT22;1435;49.472;10.940;2023-06-14T14:55:29;23.20;59.90
2855;DHT22;1435;49.472;10.940;2023-06-14T15:00:31;23.40;61.70
2855;DHT22;1435;49.472;10.940;2023-06-14T15:05:33;23.60;62.90
2855;DHT22;1435;49.472;10.940;2023-06-14T15:10:36;23.80;64.70
2855;DHT22;1435;49.472;10.940;2023-06-14T15:15:38;23.90;61.00
2855;DHT22;1435;49.472;10.940;2023-06-14T15:20:39;24.00;61.20
2855;DHT22;1435;49.472;10.940;2023-06-14T15:25:43;24.10;61.30
2855;DHT22;1435;49.472;10.940;2023-06-14T15:30:45;24.10;60.60
2855;DHT22;1435;49.472;10.940;2023-06-14T15:35:46;24.10;59.50
2855;DHT22;1435;49.472;10.940;2023-06-14T15:40:50;24.30;59.50
2855;DHT22;1435;49.472;10.940;2023-06-14T15:45:51;24.40;59.20
2855;DHT22;1435;49.472;10.940;2023-06-14T15:50:53;24.50;59.60
2855;DHT22;1435;49.472;10.940;2023-06-14T15:55:56;24.60;60.00
2855;DHT22;1435;49.472;10.940;2023-06-14T16:00:58;24.60;59.50
2855;DHT22;1435;49.472;10.940;2023-06-14T16:05:59;24.70;59.80
2855;DHT22;1435;49.472;10.940;2023-06-14T16:11:03;24.80;58.00
2855;DHT22;1435;49.472;10.940;2023-06-14T16:16:04;24.90;58.60
2855;DHT22;1435;49.472;10.940;2023-06-14T16:21:06;25.00;59.50
2855;DHT22;1435;49.472;10.940;2023-06-14T16:26:11;25.10;59.10
2855;DHT22;1435;49.472;10.940;2023-06-14T16:31:13;25.30;59.00
2855;DHT22;1435;49.472;10.940;2023-06-14T16:36:17;25.40;58.10
2855;DHT22;1435;49.472;10.940;2023-06-14T16:41:20;25.50;58.30
2855;DHT22;1435;49.472;10.940;2023-06-14T16:46:28;25.60;58.40
2855;DHT22;1435;49.472;10.940;2023-06-14T16:51:31;25.50;57.70
2855;DHT22;1435;49.472;10.940;2023-06-14T16:56:34;25.50;57.80
2855;DHT22;1435;49.472;10.940;2023-06-14T17:01:35;25.50;57.00
2855;DHT22;1435;49.472;10.940;2023-06-14T17:06:38;25.40;57.20
2855;DHT22;1435;49.472;10.940;2023-06-14T17:11:41;25.30;56.80
2855;DHT22;1435;49.472;10.940;2023-06-14T17:16:43;25.20;57.70
2855;DHT22;1435;49.472;10.940;2023-06-14T17:21:44;25.20;57.30
2855;DHT22;1435;49.472;10.940;2023-06-14T17:26:51;25.00;57.60
2855;DHT22;1435;49.472;10.940;2023-06-14T17:31:53;25.00;57.40
2855;DHT22;1435;49.472;10.940;2023-06-14T17:36:54;24.90;57.60
2855;DHT22;1435;49.472;10.940;2023-06-14T17:41:57;24.90;57.70
2855;DHT22;1435;49.472;10.940;2023-06-14T17:46:59;25.00;58.60
2855;DHT22;1435;49.472;10.940;2023-06-14T17:52:01;25.20;57.60
2855;DHT22;1435;49.472;10.940;2023-06-14T17:57:04;25.50;58.30
2855;DHT22;1435;49.472;10.940;2023-06-14T18:02:06;25.90;56.30
2855;DHT22;1435;49.472;10.940;2023-06-14T18:07:08;26.20;55.50
2855;DHT22;1435;49.472;10.940;2023-06-14T18:12:11;26.60;55.00
2855;DHT22;1435;49.472;10.940;2023-06-14T18:17:14;26.90;55.00
2855;DHT22;1435;49.472;10.940;2023-06-14T18:22:16;27.20;54.40
2855;DHT22;1435;49.472;10.940;2023-06-14T18:27:19;27.00;54.50
2855;DHT22;1435;49.472;10.940;2023-06-14T18:32:21;26.70;54.40
2855;DHT22;1435;49.472;10.940;2023-06-14T18:37:22;26.40;54.50
2855;DHT22;1435;49.472;10.940;2023-06-14T18:42:26;26.00;54.70
2855;DHT22;1435;49.472;10.940;2023-06-14T18:47:28;25.70;55.50
2855;DHT22;1435;49.472;10.940;2023-06-14T18:52:30;25.50;56.10
2855;DHT22;1435;49.472;10.940;2023-06-14T18:57:33;25.30;56.20
2855;DHT22;1435;49.472;10.940;2023-06-14T19:02:34;25.10;56.70
2855;DHT22;1435;49.472;10.940;2023-06-14T19:07:36;25.00;56.80
2855;DHT22;1435;49.472;10.940;2023-06-14T19:12:39;24.90;56.90
2855;DHT22;1435;49.472;10.940;2023-06-14T19:17:41;24.80;57.40
2855;DHT22;1435;49.472;10.940;2023-06-14T19:22:42;24.60;57.90
2855;DHT22;1435;49.472;10.940;2023-06-14T19:27:46;24.50;57.80
2855;DHT22;1435;49.472;10.940;2023-06-14T19:32:48;24.40;57.90
2855;DHT22;1435;49.472;10.940;2023-06-14T19:37:51;24.30;58.70
2855;DHT22;1435;49.472;10.940;2023-06-14T19:42:54;24.10;58.90
2855;DHT22;1435;49.472;10.940;2023-06-14T19:47:56;24.00;59.10
2855;DHT22;1435;49.472;10.940;2023-06-14T19:52:58;23.90;59.70
2855;DHT22;1435;49.472;10.940;2023-06-14T19:58:01;23.70;59.50
2855;DHT22;1435;49.472;10.940;2023-06-14T20:03:03;23.60;59.90
2855;DHT22;1435;49.472;10.940;2023-06-14T20:08:04;23.50;60.20
2855;DHT22;1435;49.472;10.940;2023-06-14T20:13:07;23.40;60.80
2855;DHT22;1435;49.472;10.940;2023-06-14T20:18:09;23.30;61.40
2855;DHT22;1435;49.472;10.940;2023-06-14T20:23:11;23.20;61.00
2855;DHT22;1435;49.472;10.940;2023-06-14T20:28:14;23.00;61.50
2855;DHT22;1435;49.472;10.940;2023-06-14T20:33:15;22.90;61.70
2855;DHT22;1435;49.472;10.940;2023-06-14T20:38:17;22.80;63.00
2855;DHT22;1435;49.472;10.940;2023-06-14T20:43:20;22.70;64.20
2855;DHT22;1435;49.472;10.940;2023-06-14T20:48:22;22.50;63.90
2855;DHT22;1435;49.472;10.940;2023-06-14T20:53:23;22.40;65.30
2855;DHT22;1435;49.472;10.940;2023-06-14T20:58:26;22.20;66.00
2855;DHT22;1435;49.472;10.940;2023-06-14T21:03:28;21.90;66.10
2855;DHT22;1435;49.472;10.940;2023-06-14T21:08:30;21.70;67.60
2855;DHT22;1435;49.472;10.940;2023-06-14T21:13:33;21.40;68.70
2855;DHT22;1435;49.472;10.940;2023-06-14T21:18:35;21.20;68.60
2855;DHT22;1435;49.472;10.940;2023-06-14T21:23:37;21.00;69.50
2855;DHT22;1435;49.472;10.940;2023-06-14T21:28:40;20.80;70.00
2855;DHT22;1435;49.472;10.940;2023-06-14T21:33:42;20.60;70.80
2855;DHT22;1435;49.472;10.940;2023-06-14T21:38:44;20.40;71.50
2855;DHT22;1435;49.472;10.940;2023-06-14T21:43:48;20.20;71.90
2855;DHT22;1435;49.472;10.940;2023-06-14T21:48:50;20.00;72.60
2855;DHT22;1435;49.472;10.940;2023-06-14T21:53:51;19.80;73.70
2855;DHT22;1435;49.472;10.940;2023-06-14T21:58:55;19.60;73.90
2855;DHT22;1435;49.472;10.940;2023-06-14T22:03:56;19.50;74.70
2855;DHT22;1435;49.472;10.940;2023-06-14T22:08:58;19.40;75.40
2855;DHT22;1435;49.472;10.940;2023-06-14T22:14:01;19.30;76.30
2855;DHT22;1435;49.472;10.940;2023-06-14T22:19:03;19.10;76.80
2855;DHT22;1435;49.472;10.940;2023-06-14T22:24:06;18.90;77.30
2855;DHT22;1435;49.472;10.940;2023-06-14T22:29:09;18.80;77.90
2855;DHT22;1435;49.472;10.940;2023-06-14T22:34:11;18.70;78.60
2855;DHT22;1435;49.472;10.940;2023-06-14T22:39:12;18.50;79.10
2855;DHT22;1435;49.472;10.940;2023-06-14T22:44:15;18.40;79.40
2855;DHT22;1435;49.472;10.940;2023-06-14T22:49:18;18.30;79.50
2855;DHT22;1435;49.472;10.940;2023-06-14T22:54:21;18.20;80.30
2855;DHT22;1435;49.472;10.940;2023-06-14T22:59:25;18.10;80.80
2855;DHT22;1435;49.472;10.940;2023-06-14T23:04:27;18.00;81.20
2855;DHT22;1435;49.472;10.940;2023-06-14T23:09:29;17.90;81.40
2855;DHT22;1435;49.472;10.940;2023-06-14T23:14:32;17.80;81.80
2855;DHT22;1435;49.472;10.940;2023-06-14T23:19:35;17.80;82.30
2855;DHT22;1435;49.472;10.940;2023-06-14T23:24:37;17.70;82.70
2855;DHT22;1435;49.472;10.940;2023-06-14T23:29:42;17.60;82.70
2855;DHT22;1435;49.472;10.940;2023-06-14T23:34:45;17.50;83.10
2855;DHT22;1435;49.472;10.940;2023-06-14T23:39:48;17.40;83.10
2855;DHT22;1435;49.472;10.940;2023-06-14T23:44:52;17.30;83.60
2855;DHT22;1435;49.472;10.940;2023-06-14T23:49:55;17.20;84.30
2855;DHT22;1435;49.472;10.940;2023-06-14T23:54:56;17.10;84.80
